createdAt,value
2018-07-09T00:00:36.939Z,70.89
2018-07-09T00:01:36.944Z,70.89
2018-07-09T00:02:36.945Z,70.70
2018-07-09T00:03:36.949Z,71.18
2018-07-09T00:04:36.952Z,71.43
2018-07-09T00:05:36.955Z,71.47
2018-07-09T00:06:36.958Z,71.34
2018-07-09T00:07:37.090Z,71.53
2018-07-09T00:08:36.974Z,71.28
2018-07-09T00:09:36.973Z,71.53
2018-07-09T00:10:36.975Z,71.43
2018-07-09T00:11:36.973Z,71.14
2018-07-09T00:12:36.979Z,71.28
2018-07-09T00:13:36.980Z,71.53
2018-07-09T00:14:36.987Z,71.72
2018-07-09T00:15:36.987Z,72.30
2018-07-09T00:16:36.989Z,71.91
2018-07-09T00:17:36.993Z,71.91
2018-07-09T00:18:36.997Z,72.11
2018-07-09T00:19:36.998Z,71.91
2018-07-09T00:20:37.004Z,71.81
2018-07-09T00:21:37.005Z,71.72
2018-07-09T00:22:37.010Z,71.91
2018-07-09T00:23:37.010Z,71.72
2018-07-09T00:24:37.018Z,71.91
2018-07-09T00:25:37.018Z,71.81
2018-07-09T00:26:37.020Z,71.81
2018-07-09T00:27:37.022Z,71.62
2018-07-09T00:28:37.026Z,71.81
2018-07-09T00:29:37.035Z,72.11
2018-07-09T00:30:37.032Z,72.11
2018-07-09T00:31:37.036Z,72.59
2018-07-09T00:32:37.040Z,72.88
2018-07-09T00:33:37.041Z,72.78
2018-07-09T00:34:37.044Z,72.68
2018-07-09T00:35:37.047Z,72.78
2018-07-09T00:36:37.052Z,72.78
2018-07-09T00:37:37.053Z,72.68
2018-07-09T00:38:37.056Z,72.88
2018-07-09T00:39:37.058Z,72.68
2018-07-09T00:40:37.066Z,72.45
2018-07-09T00:41:37.065Z,72.45
2018-07-09T00:42:37.070Z,72.68
2018-07-09T00:43:37.070Z,72.45
2018-07-09T00:44:37.075Z,72.45
2018-07-09T00:45:37.076Z,72.36
2018-07-09T00:46:37.083Z,72.55
2018-07-09T00:47:37.082Z,72.94
2018-07-09T00:48:37.084Z,72.94
2018-07-09T00:49:37.090Z,73.13
2018-07-09T00:50:37.092Z,72.94
2018-07-09T00:51:37.096Z,73.51
2018-07-09T00:52:37.099Z,73.22
2018-07-09T00:53:37.100Z,73.13
2018-07-09T00:54:37.105Z,73.51
2018-07-09T00:55:37.106Z,73.32
2018-07-09T00:56:37.112Z,73.42
2018-07-09T00:57:37.114Z,73.61
2018-07-09T00:58:37.115Z,73.42
2018-07-09T00:59:37.119Z,73.42
2018-07-09T01:00:37.121Z,73.42
2018-07-09T01:01:37.127Z,73.61
2018-07-09T01:02:37.130Z,73.51
2018-07-09T01:03:37.129Z,73.71
2018-07-09T01:04:37.132Z,73.03
2018-07-09T01:05:37.143Z,72.55
2018-07-09T01:06:37.141Z,73.13
2018-07-09T01:07:37.141Z,73.13
2018-07-09T01:08:37.146Z,73.03
2018-07-09T01:09:37.146Z,72.45
2018-07-09T01:10:37.156Z,72.84
2018-07-09T01:11:37.155Z,72.45
2018-07-09T01:12:37.154Z,72.45
2018-07-09T01:13:37.158Z,72.45
2018-07-09T01:14:37.163Z,72.45
2018-07-09T01:15:37.164Z,72.17
2018-07-09T01:16:37.167Z,71.88
2018-07-09T01:17:37.172Z,71.97
2018-07-09T01:18:37.175Z,72.65
2018-07-09T01:19:37.177Z,71.78
2018-07-09T01:20:37.178Z,72.26
2018-07-09T01:21:37.183Z,72.84
2018-07-09T01:22:37.185Z,72.07
2018-07-09T01:23:37.186Z,72.17
2018-07-09T01:24:37.191Z,72.74
2018-07-09T01:25:37.193Z,72.36
2018-07-09T01:26:37.197Z,72.07
2018-07-09T01:27:37.198Z,72.65
2018-07-09T01:28:37.204Z,72.36
2018-07-09T01:29:37.205Z,72.94
2018-07-09T01:30:37.209Z,72.84
2018-07-09T01:31:37.217Z,73.03
2018-07-09T01:32:37.213Z,72.36
2018-07-09T01:33:37.218Z,72.74
2018-07-09T01:34:37.219Z,72.45
2018-07-09T01:35:37.221Z,72.84
2018-07-09T01:36:37.225Z,72.17
2018-07-09T01:37:37.227Z,72.07
2018-07-09T01:38:37.235Z,72.07
2018-07-09T01:39:37.233Z,72.45
2018-07-09T01:40:37.238Z,72.17
2018-07-09T01:41:37.240Z,72.45
2018-07-09T01:42:37.240Z,72.26
2018-07-09T01:43:37.246Z,72.07
2018-07-09T01:44:37.252Z,72.17
2018-07-09T01:45:37.251Z,71.78
2018-07-09T01:46:37.256Z,71.78
2018-07-09T01:47:37.257Z,72.07
2018-07-09T01:48:37.259Z,71.88
2018-07-09T01:49:37.265Z,71.97
2018-07-09T01:50:37.267Z,71.59
2018-07-09T01:51:37.267Z,71.49
2018-07-09T01:52:37.275Z,72.17
2018-07-09T01:53:37.272Z,72.23
2018-07-09T01:54:37.276Z,72.13
2018-07-09T01:55:37.277Z,71.94
2018-07-09T01:56:37.283Z,71.65
2018-07-09T01:57:37.289Z,71.84
2018-07-09T01:58:37.288Z,71.84
2018-07-09T01:59:37.289Z,71.69
2018-07-09T02:00:37.293Z,71.65
2018-07-09T02:01:37.295Z,71.65
2018-07-09T02:02:37.298Z,71.08
2018-07-09T02:03:37.301Z,71.08
2018-07-09T02:04:37.303Z,71.08
2018-07-09T02:05:37.305Z,71.08
2018-07-09T02:06:37.309Z,71.26
2018-07-09T02:07:37.311Z,71.36
2018-07-09T02:08:37.314Z,70.78
2018-07-09T02:09:37.316Z,71.17
2018-07-09T02:10:37.319Z,70.88
2018-07-09T02:11:37.333Z,70.78
2018-07-09T02:12:37.324Z,71.17
2018-07-09T02:13:37.327Z,70.98
2018-07-09T02:14:37.329Z,70.88
2018-07-09T02:15:37.331Z,71.08
2018-07-09T02:16:37.336Z,70.88
2018-07-09T02:17:37.338Z,70.98
2018-07-09T02:18:37.341Z,70.88
2018-07-09T02:19:37.344Z,70.78
2018-07-09T02:20:37.428Z,70.78
2018-07-09T02:21:37.349Z,70.11
2018-07-09T02:22:37.353Z,70.01
2018-07-09T02:23:37.352Z,70.11
2018-07-09T02:24:37.357Z,70.21
2018-07-09T02:25:37.359Z,70.88
2018-07-09T02:26:37.365Z,70.98
2018-07-09T02:27:37.363Z,71.26
2018-07-09T02:28:37.364Z,70.88
2018-07-09T02:29:37.369Z,70.88
2018-07-09T02:30:37.375Z,70.40
2018-07-09T02:31:37.375Z,70.98
2018-07-09T02:32:37.379Z,70.01
2018-07-09T02:33:37.381Z,71.08
2018-07-09T02:34:37.383Z,70.78
2018-07-09T02:35:37.383Z,70.68
2018-07-09T02:36:37.389Z,70.40
2018-07-09T02:37:37.389Z,70.59
2018-07-09T02:38:37.393Z,70.68
2018-07-09T02:39:37.394Z,71.17
2018-07-09T02:40:37.402Z,70.88
2018-07-09T02:41:37.400Z,71.26
2018-07-09T02:42:37.415Z,71.26
2018-07-09T02:43:37.410Z,71.08
2018-07-09T02:44:37.409Z,71.26
2018-07-09T02:45:37.426Z,71.75
2018-07-09T02:46:37.415Z,71.17
2018-07-09T02:47:37.414Z,70.88
2018-07-09T02:48:37.437Z,71.36
2018-07-09T02:49:37.425Z,71.46
2018-07-09T02:50:37.424Z,71.36
2018-07-09T02:51:37.433Z,71.42
2018-07-09T02:52:37.436Z,71.33
2018-07-09T02:53:37.430Z,71.04
2018-07-09T02:54:37.434Z,71.81
2018-07-09T02:55:37.440Z,71.61
2018-07-09T02:56:37.437Z,71.81
2018-07-09T02:57:37.441Z,71.91
2018-07-09T02:58:37.450Z,72.00
2018-07-09T02:59:37.450Z,71.91
2018-07-09T03:00:37.455Z,71.81
2018-07-09T03:01:37.450Z,71.52
2018-07-09T03:02:37.454Z,71.71
2018-07-09T03:03:37.453Z,72.19
2018-07-09T03:04:37.456Z,72.67
2018-07-09T03:05:37.463Z,72.86
2018-07-09T03:06:37.467Z,72.86
2018-07-09T03:07:37.464Z,72.58
2018-07-09T03:08:37.466Z,72.58
2018-07-09T03:09:37.469Z,72.38
2018-07-09T03:10:37.475Z,72.48
2018-07-09T03:11:37.476Z,72.38
2018-07-09T03:12:37.475Z,72.67
2018-07-09T03:13:37.477Z,73.11
2018-07-09T03:14:37.480Z,73.25
2018-07-09T03:15:37.484Z,73.02
2018-07-09T03:16:37.485Z,73.02
2018-07-09T03:17:37.485Z,73.69
2018-07-09T03:18:37.489Z,73.41
2018-07-09T03:19:37.490Z,73.50
2018-07-09T03:20:37.493Z,73.98
2018-07-09T03:21:37.495Z,73.98
2018-07-09T03:22:37.499Z,73.69
2018-07-09T03:23:37.500Z,73.60
2018-07-09T03:24:37.502Z,73.69
2018-07-09T03:25:37.504Z,73.60
2018-07-09T03:26:37.507Z,73.60
2018-07-09T03:27:37.510Z,73.50
2018-07-09T03:28:37.510Z,73.50
2018-07-09T03:29:37.585Z,74.17
2018-07-09T03:30:37.521Z,73.98
2018-07-09T03:31:37.539Z,74.08
2018-07-09T03:32:37.525Z,74.08
2018-07-09T03:33:37.528Z,74.27
2018-07-09T03:34:37.524Z,73.88
2018-07-09T03:35:37.528Z,74.08
2018-07-09T03:36:37.526Z,74.55
2018-07-09T03:37:37.530Z,74.33
2018-07-09T03:38:37.530Z,74.55
2018-07-09T03:39:37.534Z,74.62
2018-07-09T03:40:37.536Z,74.52
2018-07-09T03:41:37.543Z,74.81
2018-07-09T03:42:37.539Z,74.81
2018-07-09T03:43:37.542Z,75.10
2018-07-09T03:44:37.545Z,74.43
2018-07-09T03:45:37.545Z,74.37
2018-07-09T03:46:37.547Z,74.52
2018-07-09T03:47:37.549Z,74.81
2018-07-09T03:48:37.552Z,74.71
2018-07-09T03:49:37.555Z,74.43
2018-07-09T03:50:37.556Z,74.52
2018-07-09T03:51:37.557Z,74.52
2018-07-09T03:52:37.558Z,74.43
2018-07-09T03:53:37.560Z,74.43
2018-07-09T03:54:37.563Z,73.85
2018-07-09T03:55:37.570Z,73.85
2018-07-09T03:56:37.568Z,73.69
2018-07-09T03:57:37.572Z,74.04
2018-07-09T03:58:37.571Z,73.46
2018-07-09T03:59:37.571Z,73.66
2018-07-09T04:00:37.573Z,73.79
2018-07-09T04:01:37.575Z,73.75
2018-07-09T04:02:37.579Z,73.27
2018-07-09T04:03:37.584Z,73.46
2018-07-09T04:04:37.581Z,73.50
2018-07-09T04:05:37.585Z,73.21
2018-07-09T04:06:37.585Z,73.69
2018-07-09T04:07:37.586Z,73.02
2018-07-09T04:08:37.590Z,73.31
2018-07-09T04:09:37.591Z,73.11
2018-07-09T04:10:37.596Z,72.83
2018-07-09T04:11:37.596Z,72.54
2018-07-09T04:12:37.608Z,72.64
2018-07-09T04:13:37.599Z,72.73
2018-07-09T04:14:37.604Z,72.54
2018-07-09T04:15:37.605Z,72.64
2018-07-09T04:16:37.608Z,72.16
2018-07-09T04:17:37.607Z,72.64
2018-07-09T04:18:37.616Z,72.64
2018-07-09T04:19:37.614Z,71.96
2018-07-09T04:20:37.612Z,72.16
2018-07-09T04:21:37.614Z,71.58
2018-07-09T04:22:37.616Z,71.77
2018-07-09T04:23:37.621Z,71.48
2018-07-09T04:24:37.623Z,72.06
2018-07-09T04:25:37.622Z,72.06
2018-07-09T04:26:37.626Z,71.10
2018-07-09T04:27:37.629Z,71.19
2018-07-09T04:28:37.628Z,70.84
2018-07-09T04:29:37.640Z,71.04
2018-07-09T04:30:37.634Z,70.75
2018-07-09T04:31:37.664Z,70.84
2018-07-09T04:32:37.637Z,70.84
2018-07-09T04:33:37.647Z,70.17
2018-07-09T04:34:37.642Z,70.65
2018-07-09T04:35:37.645Z,69.79
2018-07-09T04:36:37.648Z,69.40
2018-07-09T04:37:37.653Z,69.34
2018-07-09T04:38:37.655Z,69.40
2018-07-09T04:39:37.653Z,69.31
2018-07-09T04:40:37.662Z,69.21
2018-07-09T04:41:37.659Z,68.92
2018-07-09T04:42:37.660Z,68.96
2018-07-09T04:43:37.662Z,69.15
2018-07-09T04:44:37.664Z,68.38
2018-07-09T04:45:37.666Z,68.38
2018-07-09T04:46:37.671Z,67.99
2018-07-09T04:47:37.671Z,68.19
2018-07-09T04:48:37.673Z,67.80
2018-07-09T04:49:37.675Z,67.32
2018-07-09T04:50:37.678Z,67.90
2018-07-09T04:51:37.680Z,66.84
2018-07-09T04:52:37.683Z,66.88
2018-07-09T04:53:37.782Z,66.30
2018-07-09T04:54:37.694Z,66.65
2018-07-09T04:55:37.692Z,66.36
2018-07-09T04:56:37.697Z,66.65
2018-07-09T04:57:37.694Z,66.65
2018-07-09T04:58:37.697Z,66.46
2018-07-09T04:59:37.699Z,66.36
2018-07-09T05:00:37.704Z,66.07
2018-07-09T05:01:37.707Z,66.65
2018-07-09T05:02:37.707Z,66.36
2018-07-09T05:03:37.710Z,66.46
2018-07-09T05:04:37.713Z,66.27
2018-07-09T05:05:37.755Z,65.72
2018-07-09T05:06:37.718Z,65.33
2018-07-09T05:07:37.720Z,65.63
2018-07-09T05:08:37.769Z,65.53
2018-07-09T05:09:37.725Z,64.76
2018-07-09T05:10:37.731Z,64.86
2018-07-09T05:11:37.729Z,64.66
2018-07-09T05:12:37.732Z,64.79
2018-07-09T05:13:37.740Z,64.02
2018-07-09T05:14:37.743Z,63.44
2018-07-09T05:15:37.741Z,62.90
2018-07-09T05:16:37.744Z,61.96
2018-07-09T05:17:37.753Z,61.03
2018-07-09T05:18:37.756Z,59.87
2018-07-09T05:19:37.750Z,59.13
2018-07-09T05:20:37.760Z,58.65
2018-07-09T05:21:37.760Z,58.94
2018-07-09T05:22:37.763Z,58.94
2018-07-09T05:23:37.767Z,56.65
2018-07-09T05:24:37.769Z,56.16
2018-07-09T05:25:37.773Z,55.49
2018-07-09T05:26:37.776Z,55.98
2018-07-09T05:27:37.790Z,56.36
2018-07-09T05:28:37.784Z,56.36
2018-07-09T05:29:37.787Z,55.68
2018-07-09T05:30:37.801Z,55.71
2018-07-09T05:31:37.796Z,55.81
2018-07-09T05:32:37.799Z,55.90
2018-07-09T05:33:37.805Z,55.68
2018-07-09T05:34:37.806Z,56.46
2018-07-09T05:35:37.807Z,56.46
2018-07-09T05:36:37.813Z,56.81
2018-07-09T05:37:37.815Z,57.59
2018-07-09T05:38:37.822Z,57.97
2018-07-09T05:39:37.824Z,57.42
2018-07-09T05:40:37.826Z,56.74
2018-07-09T05:41:37.832Z,57.29
2018-07-09T05:42:37.836Z,57.78
2018-07-09T05:43:37.838Z,57.94
2018-07-09T05:44:37.842Z,58.55
2018-07-09T05:45:37.860Z,59.30
2018-07-09T05:46:37.853Z,59.10
2018-07-09T05:47:37.853Z,59.20
2018-07-09T05:48:37.863Z,59.87
2018-07-09T05:49:37.862Z,60.23
2018-07-09T05:50:37.866Z,60.32
2018-07-09T05:51:37.868Z,60.13
2018-07-09T05:52:37.872Z,59.97
2018-07-09T05:53:37.877Z,59.78
2018-07-09T05:54:37.883Z,59.30
2018-07-09T05:55:37.883Z,59.30
2018-07-09T05:56:37.893Z,59.97
2018-07-09T05:57:37.893Z,60.45
2018-07-09T05:58:37.896Z,59.78
2018-07-09T05:59:37.898Z,59.30
2018-07-09T06:00:37.902Z,58.94
2018-07-09T06:01:37.908Z,58.55
2018-07-09T06:02:37.917Z,57.90
2018-07-09T06:03:37.913Z,57.04
2018-07-09T06:04:37.917Z,56.10
2018-07-09T06:05:37.985Z,55.55
2018-07-09T06:06:37.931Z,55.07
2018-07-09T06:07:37.928Z,55.04
2018-07-09T06:08:37.936Z,55.13
2018-07-09T06:09:37.941Z,56.10
2018-07-09T06:10:37.941Z,56.46
2018-07-09T06:11:37.946Z,56.56
2018-07-09T06:12:37.953Z,56.84
2018-07-09T06:13:38.038Z,58.07
2018-07-09T06:14:37.959Z,57.78
2018-07-09T06:15:37.961Z,57.68
2018-07-09T06:16:37.966Z,57.42
2018-07-09T06:17:37.976Z,57.06
2018-07-09T06:18:37.975Z,56.29
2018-07-09T06:19:38.009Z,55.33
2018-07-09T06:20:37.984Z,55.55
2018-07-09T06:21:37.988Z,55.62
2018-07-09T06:22:37.990Z,55.13
2018-07-09T06:23:37.994Z,55.62
2018-07-09T06:24:37.999Z,55.13
2018-07-09T06:25:38.005Z,56.10
2018-07-09T06:26:38.008Z,56.36
2018-07-09T06:27:38.012Z,56.36
2018-07-09T06:28:38.018Z,55.88
2018-07-09T06:29:38.021Z,56.16
2018-07-09T06:30:38.025Z,55.98
2018-07-09T06:31:38.087Z,56.16
2018-07-09T06:32:38.035Z,56.56
2018-07-09T06:33:38.039Z,57.04
2018-07-09T06:34:38.043Z,57.14
2018-07-09T06:35:38.046Z,57.14
2018-07-09T06:36:38.052Z,57.23
2018-07-09T06:37:38.073Z,56.56
2018-07-09T06:38:38.059Z,56.26
2018-07-09T06:39:38.063Z,56.56
2018-07-09T06:40:38.069Z,56.56
2018-07-09T06:41:38.072Z,56.39
2018-07-09T06:42:38.075Z,56.46
2018-07-09T06:43:38.080Z,56.39
2018-07-09T06:44:38.111Z,56.00
2018-07-09T06:45:38.089Z,56.26
2018-07-09T06:46:38.107Z,56.58
2018-07-09T06:47:38.097Z,56.36
2018-07-09T06:48:38.100Z,56.26
2018-07-09T06:49:38.104Z,56.26
2018-07-09T06:50:38.110Z,56.46
2018-07-09T06:51:38.111Z,56.07
2018-07-09T06:52:38.116Z,56.56
2018-07-09T06:53:38.120Z,56.36
2018-07-09T06:54:38.124Z,56.07
2018-07-09T06:55:38.128Z,55.98
2018-07-09T06:56:38.134Z,56.46
2018-07-09T06:57:38.163Z,56.56
2018-07-09T06:58:38.141Z,56.16
2018-07-09T06:59:38.152Z,56.46
2018-07-09T07:00:38.156Z,56.56
2018-07-09T07:01:38.152Z,57.14
2018-07-09T07:02:38.158Z,57.29
2018-07-09T07:03:38.188Z,57.10
2018-07-09T07:04:38.177Z,57.39
2018-07-09T07:05:38.171Z,57.20
2018-07-09T07:06:38.231Z,56.91
2018-07-09T07:07:38.259Z,57.59
2018-07-09T07:08:38.230Z,56.72
2018-07-09T07:09:38.187Z,56.62
2018-07-09T07:10:38.190Z,57.39
2018-07-09T07:11:38.197Z,57.10
2018-07-09T07:12:38.202Z,56.07
2018-07-09T07:13:38.202Z,56.26
2018-07-09T07:14:38.206Z,55.98
2018-07-09T07:15:38.208Z,56.26
2018-07-09T07:16:38.213Z,55.88
2018-07-09T07:17:38.220Z,55.30
2018-07-09T07:18:38.225Z,55.49
2018-07-09T07:19:38.226Z,54.91
2018-07-09T07:20:38.229Z,55.30
2018-07-09T07:21:38.233Z,55.40
2018-07-09T07:22:38.236Z,55.49
2018-07-09T07:23:38.241Z,55.40
2018-07-09T07:24:38.246Z,55.59
2018-07-09T07:25:38.249Z,55.20
2018-07-09T07:26:38.327Z,55.59
2018-07-09T07:27:38.256Z,55.68
2018-07-09T07:28:38.262Z,56.16
2018-07-09T07:29:38.267Z,55.49
2018-07-09T07:30:38.268Z,55.30
2018-07-09T07:31:38.273Z,55.01
2018-07-09T07:32:38.318Z,55.20
2018-07-09T07:33:38.281Z,55.30
2018-07-09T07:34:38.309Z,55.10
2018-07-09T07:35:38.287Z,55.10
2018-07-09T07:36:38.291Z,55.30
2018-07-09T07:37:38.298Z,54.24
2018-07-09T07:38:38.300Z,54.82
2018-07-09T07:39:38.304Z,55.30
2018-07-09T07:40:38.307Z,55.59
2018-07-09T07:41:38.312Z,55.59
2018-07-09T07:42:38.321Z,54.72
2018-07-09T07:43:38.317Z,55.01
2018-07-09T07:44:38.323Z,55.20
2018-07-09T07:45:38.327Z,55.20
2018-07-09T07:46:38.332Z,54.43
2018-07-09T07:47:38.334Z,54.72
2018-07-09T07:48:38.344Z,54.24
2018-07-09T07:49:38.343Z,54.72
2018-07-09T07:50:38.559Z,54.53
2018-07-09T07:51:38.352Z,54.14
2018-07-09T07:52:38.354Z,54.05
2018-07-09T07:53:38.362Z,54.53
2018-07-09T07:54:38.362Z,54.14
2018-07-09T07:55:38.369Z,54.43
2018-07-09T07:56:38.369Z,54.05
2018-07-09T07:57:38.374Z,54.33
2018-07-09T07:58:38.377Z,55.01
2018-07-09T07:59:38.382Z,55.30
2018-07-09T08:00:38.385Z,55.30
2018-07-09T08:01:38.390Z,54.05
2018-07-09T08:02:38.395Z,53.88
2018-07-09T08:03:38.396Z,54.05
2018-07-09T08:04:38.401Z,53.66
2018-07-09T08:05:38.406Z,52.89
2018-07-09T08:06:38.409Z,52.31
2018-07-09T08:07:38.412Z,52.69
2018-07-09T08:08:38.419Z,52.50
2018-07-09T08:09:38.466Z,52.01
2018-07-09T08:10:38.426Z,51.65
2018-07-09T08:11:48.553Z,50.69
2018-07-09T08:13:38.461Z,50.09
2018-07-09T08:14:38.439Z,49.90
2018-07-09T08:15:38.600Z,50.47
2018-07-09T08:16:38.448Z,50.67
2018-07-09T08:17:38.450Z,50.57
2018-07-09T08:18:38.464Z,50.76
2018-07-09T08:19:38.458Z,50.47
2018-07-09T08:20:38.463Z,49.90
2018-07-09T08:21:38.465Z,49.60
2018-07-09T08:22:38.471Z,49.70
2018-07-09T08:23:38.481Z,49.80
2018-07-09T08:24:38.478Z,49.12
2018-07-09T08:25:38.591Z,49.90
2018-07-09T08:26:38.486Z,49.34
2018-07-09T08:27:38.490Z,49.15
2018-07-09T08:28:38.495Z,48.86
2018-07-09T08:29:38.497Z,49.15
2018-07-09T08:30:38.509Z,48.95
2018-07-09T08:31:38.513Z,48.86
2018-07-09T08:32:38.525Z,48.28
2018-07-09T08:33:38.512Z,48.18
2018-07-09T08:34:38.516Z,47.99
2018-07-09T08:35:38.519Z,47.60
2018-07-09T08:36:38.523Z,47.60
2018-07-09T08:37:38.532Z,47.33
2018-07-09T08:38:38.533Z,46.27
2018-07-09T08:39:38.534Z,45.35
2018-07-09T08:40:38.543Z,44.40
2018-07-09T08:41:38.544Z,42.03
2018-07-09T08:42:38.547Z,40.92
2018-07-09T08:43:38.552Z,39.32
2018-07-09T08:44:38.556Z,37.59
2018-07-09T08:45:38.564Z,37.12
2018-07-09T08:46:38.569Z,36.07
2018-07-09T08:47:38.570Z,35.21
2018-07-09T08:48:38.575Z,33.98
2018-07-09T08:49:38.583Z,32.92
2018-07-09T08:50:38.586Z,31.49
2018-07-09T08:51:38.592Z,30.73
2018-07-09T08:52:38.656Z,29.79
2018-07-09T08:53:38.603Z,28.53
2018-07-09T08:54:38.610Z,26.99
2018-07-09T08:55:38.615Z,26.71
2018-07-09T08:56:38.622Z,25.83
2018-07-09T08:57:38.630Z,24.08
2018-07-09T08:58:38.635Z,23.90
2018-07-09T08:59:38.641Z,22.73
2018-07-09T09:00:38.650Z,22.84
2018-07-09T09:01:38.657Z,22.55
2018-07-09T09:02:38.665Z,22.46
2018-07-09T09:03:38.709Z,22.26
2018-07-09T09:04:38.690Z,21.58
2018-07-09T09:05:38.690Z,21.56
2018-07-09T09:06:38.746Z,22.05
2018-07-09T09:07:38.704Z,22.91
2018-07-09T09:08:38.716Z,23.09
2018-07-09T09:09:38.722Z,24.04
2018-07-09T09:10:38.731Z,24.91
2018-07-09T09:11:38.784Z,25.20
2018-07-09T09:12:38.748Z,25.39
2018-07-09T09:13:38.955Z,25.59
2018-07-09T09:14:38.764Z,25.78
2018-07-09T09:15:38.782Z,25.86
2018-07-09T09:16:38.797Z,25.18
2018-07-09T09:17:38.791Z,25.10
2018-07-09T09:18:38.799Z,24.90
2018-07-09T09:19:38.803Z,24.81
2018-07-09T09:20:38.814Z,24.25
2018-07-09T09:21:38.828Z,23.58
2018-07-09T09:22:38.829Z,23.68
2018-07-09T09:23:38.840Z,22.70
2018-07-09T09:24:38.845Z,22.98
2018-07-09T09:25:38.886Z,24.14
2018-07-09T09:26:38.863Z,24.13
2018-07-09T09:27:38.869Z,23.94
2018-07-09T09:28:38.884Z,22.98
2018-07-09T09:29:38.892Z,22.81
2018-07-09T09:30:38.896Z,21.55
2018-07-09T09:31:38.958Z,21.47
2018-07-09T09:32:38.913Z,20.99
2018-07-09T09:33:38.921Z,20.51
2018-07-09T09:34:38.930Z,20.42
2018-07-09T09:35:38.938Z,19.06
2018-07-09T09:36:38.948Z,19.07
2018-07-09T09:37:38.970Z,18.87
2018-07-09T09:38:40.792Z,18.86
2018-07-09T09:39:38.975Z,18.85
2018-07-09T09:40:38.999Z,18.37
2018-07-09T09:41:40.297Z,17.88
2018-07-09T09:42:39.054Z,18.00
2018-07-09T09:43:39.308Z,17.32
2018-07-09T09:44:39.250Z,16.83
2018-07-09T09:45:40.056Z,16.64
2018-07-09T09:46:40.032Z,15.97
2018-07-09T09:47:39.064Z,15.78
2018-07-09T09:48:39.064Z,15.58
2018-07-09T09:49:39.075Z,15.30
2018-07-09T09:50:39.089Z,14.61
2018-07-09T09:51:39.095Z,14.32
2018-07-09T09:52:39.109Z,14.12
2018-07-09T09:53:39.118Z,14.52
2018-07-09T09:54:39.133Z,14.13
2018-07-09T09:55:39.143Z,13.75
2018-07-09T09:56:39.169Z,13.05
2018-07-09T09:57:39.164Z,13.15
2018-07-09T09:58:39.192Z,13.35
2018-07-09T09:59:39.193Z,12.77
2018-07-09T10:00:39.284Z,12.77
2018-07-09T10:01:39.215Z,12.57
2018-07-09T10:02:39.226Z,12.28
2018-07-09T10:03:39.297Z,11.69
2018-07-09T10:04:39.280Z,11.79
2018-07-09T10:05:39.268Z,11.50
2018-07-09T10:06:39.280Z,11.20
2018-07-09T10:07:39.291Z,10.91
2018-07-09T10:08:39.348Z,10.42
2018-07-09T10:09:39.321Z,10.81
2018-07-09T10:10:39.338Z,11.78
2018-07-09T10:11:39.352Z,12.16
2018-07-09T10:12:39.360Z,13.23
2018-07-09T10:13:39.374Z,13.04
2018-07-09T10:14:39.388Z,12.85
2018-07-09T10:15:39.400Z,12.66
2018-07-09T10:16:39.414Z,12.56
2018-07-09T10:17:39.460Z,12.87
2018-07-09T10:18:39.473Z,12.67
2018-07-09T10:19:39.455Z,12.18
2018-07-09T10:20:39.481Z,11.58
2018-07-09T10:21:39.483Z,12.07
2018-07-09T10:22:39.500Z,11.68
2018-07-09T10:23:39.588Z,11.68
2018-07-09T10:24:39.524Z,11.58
2018-07-09T10:25:39.538Z,11.39
2018-07-09T10:26:40.151Z,11.19
2018-07-09T10:27:39.569Z,11.87
2018-07-09T10:28:39.591Z,12.16
2018-07-09T10:29:39.596Z,12.07
2018-07-09T10:30:39.611Z,11.88
2018-07-09T10:31:39.624Z,11.58
2018-07-09T10:32:40.757Z,11.49
2018-07-09T10:33:39.655Z,11.00
2018-07-09T10:34:39.669Z,10.81
2018-07-09T10:35:40.685Z,10.91
2018-07-09T10:36:40.862Z,10.82
2018-07-09T10:37:39.806Z,10.13
2018-07-09T10:38:40.270Z,10.62
2018-07-09T10:39:39.810Z,10.52
2018-07-09T10:40:39.805Z,10.33
2018-07-09T10:41:39.775Z,10.33
2018-07-09T10:42:39.790Z,10.71
2018-07-09T10:43:39.805Z,11.01
2018-07-09T10:44:39.826Z,10.42
2018-07-09T10:45:39.839Z,9.34
2018-07-09T10:46:39.855Z,9.24
2018-07-09T10:47:39.877Z,9.25
2018-07-09T10:48:39.886Z,8.86
2018-07-09T10:49:39.902Z,8.76
2018-07-09T10:50:39.925Z,8.26
2018-07-09T10:51:39.936Z,9.35
2018-07-09T10:52:39.951Z,9.25
2018-07-09T10:53:39.970Z,8.45
2018-07-09T10:54:39.988Z,9.05
2018-07-09T10:55:40.698Z,9.24
2018-07-09T10:56:40.311Z,9.34
2018-07-09T10:57:40.043Z,8.56
2018-07-09T10:58:40.215Z,8.56
2018-07-09T10:59:41.064Z,8.06
2018-07-09T11:00:41.061Z,8.07
2018-07-09T11:01:40.104Z,7.67
2018-07-09T11:02:40.125Z,7.48
2018-07-09T11:03:40.140Z,7.28
2018-07-09T11:04:40.156Z,7.87
2018-07-09T11:05:40.177Z,7.37
2018-07-09T11:06:40.199Z,7.37
2018-07-09T11:07:40.206Z,7.37
2018-07-09T11:08:40.224Z,7.36
2018-07-09T11:09:40.292Z,7.56
2018-07-09T11:10:40.266Z,7.56
2018-07-09T11:11:40.289Z,7.17
2018-07-09T11:12:40.314Z,7.46
2018-07-09T11:13:40.316Z,6.37
2018-07-09T11:14:40.332Z,6.67
2018-07-09T11:15:40.351Z,6.98
2018-07-09T11:16:40.367Z,6.97
2018-07-09T11:17:40.388Z,6.58
2018-07-09T11:18:40.403Z,6.58
2018-07-09T11:19:40.422Z,6.08
2018-07-09T11:20:40.440Z,5.98
2018-07-09T11:21:40.477Z,6.28
2018-07-09T11:22:40.477Z,6.48
2018-07-09T11:23:40.503Z,6.28
2018-07-09T11:24:40.514Z,6.18
2018-07-09T11:25:40.794Z,6.57
2018-07-09T11:26:43.495Z,6.96
2018-07-09T11:27:40.751Z,6.87
2018-07-09T11:28:40.588Z,6.87
2018-07-09T11:29:40.606Z,6.67
2018-07-09T11:30:40.625Z,6.27
2018-07-09T11:31:40.647Z,6.57
2018-07-09T11:32:40.725Z,6.18
2018-07-09T11:33:41.007Z,5.78
2018-07-09T11:34:40.697Z,5.88
2018-07-09T11:35:40.715Z,5.68
2018-07-09T11:36:40.739Z,5.88
2018-07-09T11:37:40.798Z,5.69
2018-07-09T11:38:40.772Z,6.18
2018-07-09T11:39:40.790Z,6.08
2018-07-09T11:40:40.822Z,5.98
2018-07-09T11:41:40.840Z,6.67
2018-07-09T11:42:40.846Z,6.07
2018-07-09T11:43:40.863Z,6.47
2018-07-09T11:44:42.736Z,6.47
2018-07-09T11:45:40.901Z,5.87
2018-07-09T11:46:40.924Z,5.98
2018-07-09T11:47:40.945Z,6.08
2018-07-09T11:48:41.790Z,6.08
2018-07-09T11:49:40.981Z,6.07
2018-07-09T11:50:41.002Z,7.05
2018-07-09T11:51:41.034Z,6.56
2018-07-09T11:52:41.036Z,6.66
2018-07-09T11:53:41.060Z,6.26
2018-07-09T11:54:41.067Z,6.46
2018-07-09T11:55:41.090Z,6.17
2018-07-09T11:56:41.103Z,6.17
2018-07-09T11:57:41.123Z,6.17
2018-07-09T11:58:41.147Z,5.68
2018-07-09T11:59:41.156Z,5.98
2018-07-09T12:00:41.177Z,5.77
2018-07-09T12:01:41.196Z,6.27
2018-07-09T12:02:41.213Z,5.48
2018-07-09T12:03:41.266Z,5.68
2018-07-09T12:04:41.285Z,5.38
2018-07-09T12:05:41.268Z,5.68
2018-07-09T12:06:41.286Z,5.29
2018-07-09T12:07:41.304Z,5.09
2018-07-09T12:08:41.328Z,4.99
2018-07-09T12:09:41.346Z,5.19
2018-07-09T12:10:41.363Z,4.99
2018-07-09T12:11:41.380Z,5.29
2018-07-09T12:12:41.399Z,5.38
2018-07-09T12:13:41.416Z,5.48
2018-07-09T12:14:41.444Z,5.18
2018-07-09T12:15:41.460Z,5.48
2018-07-09T12:16:41.480Z,5.08
2018-07-09T12:17:41.492Z,5.18
2018-07-09T12:18:41.512Z,5.08
2018-07-09T12:19:41.535Z,5.48
2018-07-09T12:20:41.548Z,5.38
2018-07-09T12:21:41.636Z,5.19
2018-07-09T12:22:41.588Z,5.38
2018-07-09T12:23:41.609Z,4.89
2018-07-09T12:24:41.624Z,4.59
2018-07-09T12:25:41.644Z,4.59
2018-07-09T12:26:42.692Z,4.59
2018-07-09T12:27:41.685Z,4.29
2018-07-09T12:28:41.700Z,4.99
2018-07-09T12:29:41.719Z,5.38
2018-07-09T12:30:41.752Z,5.19
2018-07-09T12:31:42.126Z,4.89
2018-07-09T12:32:41.779Z,4.99
2018-07-09T12:33:41.796Z,5.19
2018-07-09T12:34:41.815Z,5.28
2018-07-09T12:35:42.147Z,5.28
2018-07-09T12:36:41.869Z,4.79
2018-07-09T12:37:41.982Z,4.89
2018-07-09T12:38:41.890Z,4.59
2018-07-09T12:39:41.907Z,4.60
2018-07-09T12:40:41.929Z,4.30
2018-07-09T12:41:41.948Z,4.30
2018-07-09T12:42:42.025Z,4.69
2018-07-09T12:43:41.998Z,4.60
2018-07-09T12:44:42.028Z,3.90
2018-07-09T12:45:42.023Z,3.90
2018-07-09T12:46:42.039Z,3.50
2018-07-09T12:47:42.060Z,3.80
2018-07-09T12:48:42.078Z,3.60
2018-07-09T12:49:42.149Z,2.90
2018-07-09T12:50:42.118Z,3.89
2018-07-09T12:51:42.135Z,4.00
2018-07-09T12:52:42.155Z,3.70
2018-07-09T12:53:42.178Z,3.50
2018-07-09T12:54:42.195Z,3.80
2018-07-09T12:55:42.217Z,3.60
2018-07-09T12:56:42.227Z,3.20
2018-07-09T12:57:42.273Z,3.50
2018-07-09T12:58:43.105Z,3.20